Time;durP1;ratioP1;P1;durP2;ratioP2;P2;SDS_P1;SDS_P2;PMS_P1;PMS_P2;Temp;Humidity;BMP_temperature;BMP_pressure;BME280_temperature;BME280_humidity;BME280_pressure;Samples;Min_cycle;Max_cycle;Signal;HPM_P1;HPM_P2
2021/12/16 00:08:29;;;;;;;14.85;9.05;;;;;;;;;;5009153;28;20040;-74
2021/12/16 00:11:15;;;;;;;17.48;8.90;;;;;;;;;;5008890;28;20029;-73
2021/12/16 00:33:12;;;;;;;15.10;8.98;;;;;;;;;;5007389;28;20030;-73
2021/12/16 00:35:39;;;;;;;17.83;10.00;;;;;;;;;;5001193;28;20446;-74
2021/12/16 00:38:04;;;;;;;16.50;9.57;;;;;;;;;;5007600;28;20032;-73
2021/12/16 00:40:30;;;;;;;16.90;9.55;;;;;;;;;;5008629;28;20399;-73
2021/12/16 00:43:01;;;;;;;14.45;9.25;;;;;;;;;;5012631;28;20033;-74
2021/12/16 00:45:56;;;;;;;15.85;9.55;;;;;;;;;;5013372;28;20036;-75
2021/12/16 00:48:24;;;;;;;15.98;9.45;;;;;;;;;;5014056;28;20435;-74
2021/12/16 00:56:13;;;;;;;19.50;11.52;;;;;;;;;;5013509;28;19924;-74
2021/12/16 00:58:46;;;;;;;20.95;10.80;;;;;;;;;;5015597;28;20026;-73
2021/12/16 01:01:32;;;;;;;17.35;10.45;;;;;;;;;;5013632;28;20088;-74
2021/12/16 01:50:35;;;;;;;20.73;11.00;;;;;;;;;;5013897;28;20032;-74
2021/12/16 01:53:16;;;;;;;19.42;10.48;;;;;;;;;;5013119;28;20415;-75
2021/12/16 01:55:56;;;;;;;17.63;10.05;;;;;;;;;;5000917;28;20030;-74
2021/12/16 01:58:24;;;;;;;15.25;9.73;;;;;;;;;;5012060;28;20022;-74
2021/12/16 02:03:45;;;;;;;19.45;10.82;;;;;;;;;;5011366;28;20041;-74
2021/12/16 02:06:40;;;;;;;18.70;11.27;;;;;;;;;;5019042;28;20026;-74
2021/12/16 02:09:25;;;;;;;15.65;9.35;;;;;;;;;;4999009;28;20072;-74
2021/12/16 02:33:48;;;;;;;19.38;10.38;;;;;;;;;;5011243;28;20041;-74
2021/12/16 02:36:29;;;;;;;16.40;9.63;;;;;;;;;;5009715;28;20192;-74
2021/12/16 02:39:18;;;;;;;17.73;10.38;;;;;;;;;;5009800;28;20033;-73
2021/12/16 02:41:46;;;;;;;20.00;9.95;;;;;;;;;;4994741;28;20042;-73
2021/12/16 02:44:27;;;;;;;18.17;10.50;;;;;;;;;;5010517;28;20025;-74
2021/12/16 02:49:51;;;;;;;17.58;10.32;;;;;;;;;;5010028;28;20084;-74
2021/12/16 02:52:18;;;;;;;16.48;10.05;;;;;;;;;;5011344;28;20034;-74
2021/12/16 02:54:44;;;;;;;23.23;10.50;;;;;;;;;;5008306;28;20116;-75
2021/12/16 02:57:09;;;;;;;17.92;9.80;;;;;;;;;;5010154;28;20475;-74
2021/12/16 02:59:35;;;;;;;19.33;10.40;;;;;;;;;;5008236;28;20044;-75
2021/12/16 03:02:08;;;;;;;17.50;9.95;;;;;;;;;;5009668;28;20495;-73
2021/12/16 03:04:36;;;;;;;17.35;10.32;;;;;;;;;;5009335;28;20030;-74
2021/12/16 03:07:03;;;;;;;18.08;10.15;;;;;;;;;;5009303;28;20029;-74
2021/12/16 03:12:49;;;;;;;16.95;9.85;;;;;;;;;;5010606;28;20032;-72
2021/12/16 03:15:06;;;;;;;16.63;9.60;;;;;;;;;;4996805;28;20824;-72
2021/12/16 03:17:55;;;;;;;17.75;9.63;;;;;;;;;;5010073;28;20073;-72
2021/12/16 03:20:40;;;;;;;20.20;10.20;;;;;;;;;;5009737;28;20214;-71
2021/12/16 03:23:32;;;;;;;18.05;9.82;;;;;;;;;;5009167;28;20018;-71
2021/12/16 03:31:37;;;;;;;17.73;9.65;;;;;;;;;;5008005;28;20100;-72
2021/12/16 03:36:48;;;;;;;16.63;9.63;;;;;;;;;;5009129;28;20045;-72
2021/12/16 03:39:14;;;;;;;17.73;9.07;;;;;;;;;;5009720;28;20026;-72
2021/12/16 03:41:40;;;;;;;20.17;9.55;;;;;;;;;;5009515;28;20410;-73
2021/12/16 03:44:10;;;;;;;17.27;9.40;;;;;;;;;;5007678;28;20041;-73
2021/12/16 03:46:40;;;;;;;17.98;9.40;;;;;;;;;;5010372;28;20467;-72
2021/12/16 03:49:05;;;;;;;14.82;9.02;;;;;;;;;;5009749;28;20095;-73
2021/12/16 03:51:36;;;;;;;20.38;11.35;;;;;;;;;;4989747;28;20484;-72
2021/12/16 03:54:13;;;;;;;21.98;11.02;;;;;;;;;;4998304;28;20030;-72
2021/12/16 03:56:40;;;;;;;19.67;10.68;;;;;;;;;;5008289;28;20038;-72
2021/12/16 03:59:07;;;;;;;22.08;10.35;;;;;;;;;;5008471;28;20419;-72
2021/12/16 04:01:34;;;;;;;21.67;10.65;;;;;;;;;;5008133;28;20040;-72
2021/12/16 04:04:00;;;;;;;20.88;10.45;;;;;;;;;;5009014;28;20060;-73
2021/12/16 04:06:28;;;;;;;19.33;10.98;;;;;;;;;;5008852;28;20026;-72
2021/12/16 04:08:54;;;;;;;19.38;9.75;;;;;;;;;;5009508;28;20104;-72
2021/12/16 04:11:31;;;;;;;18.88;9.70;;;;;;;;;;5008556;28;20498;-72
2021/12/16 04:13:58;;;;;;;22.65;11.63;;;;;;;;;;5009104;28;20053;-72
2021/12/16 04:16:26;;;;;;;24.27;11.90;;;;;;;;;;5008512;28;20022;-73
2021/12/16 04:18:51;;;;;;;19.10;10.80;;;;;;;;;;5009549;28;20038;-73
2021/12/16 04:21:19;;;;;;;19.20;10.77;;;;;;;;;;5008772;28;20037;-72
2021/12/16 04:23:46;;;;;;;19.17;11.13;;;;;;;;;;5009135;28;20064;-73
2021/12/16 04:26:12;;;;;;;20.60;10.75;;;;;;;;;;5009235;28;20427;-72
2021/12/16 04:28:37;;;;;;;22.08;10.90;;;;;;;;;;5007970;28;20069;-72
2021/12/16 04:31:03;;;;;;;19.67;10.85;;;;;;;;;;5009004;28;20488;-73
2021/12/16 04:33:28;;;;;;;20.88;10.93;;;;;;;;;;5009583;28;20040;-71
2021/12/16 04:35:54;;;;;;;18.10;10.82;;;;;;;;;;5005148;28;20048;-72
2021/12/16 04:38:19;;;;;;;20.75;11.18;;;;;;;;;;5009602;28;20028;-72
2021/12/16 04:40:47;;;;;;;18.85;11.13;;;;;;;;;;5005929;28;20475;-72
2021/12/16 04:43:19;;;;;;;24.85;11.50;;;;;;;;;;5008544;28;20387;-72
2021/12/16 04:45:45;;;;;;;23.50;12.10;;;;;;;;;;5008306;28;20105;-72
2021/12/16 04:48:10;;;;;;;22.75;11.88;;;;;;;;;;5009302;28;20109;-72
2021/12/16 04:50:36;;;;;;;28.38;12.25;;;;;;;;;;5008511;28;20131;-71
2021/12/16 04:53:02;;;;;;;25.90;12.65;;;;;;;;;;5007837;28;20034;-72
2021/12/16 04:55:27;;;;;;;21.80;12.52;;;;;;;;;;5006259;28;20084;-72
2021/12/16 04:57:53;;;;;;;24.13;11.57;;;;;;;;;;5009660;28;20072;-73
2021/12/16 05:00:22;;;;;;;25.63;11.73;;;;;;;;;;5007707;28;20030;-71
2021/12/16 05:02:47;;;;;;;23.20;14.98;;;;;;;;;;5009525;28;20034;-73
2021/12/16 05:05:13;;;;;;;24.38;12.88;;;;;;;;;;5007373;28;20080;-74
2021/12/16 05:07:42;;;;;;;24.65;12.10;;;;;;;;;;5007567;28;20049;-73
2021/12/16 05:10:11;;;;;;;20.85;11.18;;;;;;;;;;5008460;28;20038;-72
2021/12/16 05:12:44;;;;;;;19.58;11.20;;;;;;;;;;5005656;28;20056;-71
2021/12/16 05:15:15;;;;;;;21.95;10.43;;;;;;;;;;5008475;28;20032;-72
2021/12/16 05:17:47;;;;;;;20.77;10.65;;;;;;;;;;5007753;28;20495;-72
2021/12/16 05:20:16;;;;;;;20.35;10.13;;;;;;;;;;5007078;28;20407;-72
2021/12/16 05:27:54;;;;;;;20.88;11.50;;;;;;;;;;5009266;28;20029;-72
2021/12/16 05:30:19;;;;;;;22.48;12.05;;;;;;;;;;5010910;28;20037;-72
2021/12/16 05:32:46;;;;;;;20.27;11.38;;;;;;;;;;5013203;28;20058;-72
2021/12/16 05:35:15;;;;;;;19.50;11.00;;;;;;;;;;5012120;28;20108;-72
2021/12/16 05:37:43;;;;;;;21.50;11.68;;;;;;;;;;5011553;28;20437;-72
2021/12/16 05:40:09;;;;;;;25.02;11.70;;;;;;;;;;5011804;28;20483;-72
2021/12/16 05:42:34;;;;;;;19.98;11.05;;;;;;;;;;5011997;28;20069;-73
2021/12/16 05:45:00;;;;;;;24.88;11.85;;;;;;;;;;5011458;28;20439;-72
2021/12/16 05:47:25;;;;;;;25.15;12.68;;;;;;;;;;5012561;28;20022;-71
2021/12/16 05:49:50;;;;;;;20.95;11.45;;;;;;;;;;5010983;28;20037;-73
2021/12/16 05:52:16;;;;;;;20.70;11.85;;;;;;;;;;5011305;28;20030;-73
2021/12/16 05:54:41;;;;;;;21.60;11.82;;;;;;;;;;5011258;28;20025;-72
2021/12/16 05:57:07;;;;;;;24.30;12.35;;;;;;;;;;5010778;28;20021;-74
2021/12/16 05:59:32;;;;;;;21.27;11.65;;;;;;;;;;5011780;28;20030;-72
2021/12/16 06:01:57;;;;;;;23.58;12.32;;;;;;;;;;5011064;28;20057;-72
2021/12/16 06:04:23;;;;;;;22.48;12.15;;;;;;;;;;5009165;28;20546;-74
2021/12/16 06:06:48;;;;;;;19.90;11.50;;;;;;;;;;5002366;28;20038;-72
2021/12/16 06:09:14;;;;;;;21.17;11.32;;;;;;;;;;5011368;28;20034;-71
2021/12/16 06:11:41;;;;;;;22.60;12.23;;;;;;;;;;5011046;28;20488;-73
2021/12/16 06:22:47;;;;;;;22.17;11.57;;;;;;;;;;5010100;28;20629;-72
2021/12/16 06:28:06;;;;;;;22.88;10.88;;;;;;;;;;5013974;28;20562;-72
2021/12/16 06:30:40;;;;;;;22.13;11.30;;;;;;;;;;4997772;28;20607;-71
2021/12/16 06:33:09;;;;;;;22.48;12.38;;;;;;;;;;5008776;28;20426;-72
2021/12/16 06:35:35;;;;;;;23.48;12.10;;;;;;;;;;5031217;28;20441;-71
2021/12/16 06:38:01;;;;;;;19.58;10.52;;;;;;;;;;5025518;28;20033;-72
2021/12/16 06:40:26;;;;;;;20.83;11.48;;;;;;;;;;5012975;28;20052;-72
2021/12/16 06:42:55;;;;;;;20.55;10.88;;;;;;;;;;5011488;28;20033;-72
2021/12/16 06:45:26;;;;;;;28.23;15.38;;;;;;;;;;5009856;28;20037;-73
2021/12/16 06:47:57;;;;;;;33.83;17.00;;;;;;;;;;5011382;28;20522;-71
2021/12/16 06:50:52;;;;;;;29.17;15.35;;;;;;;;;;5011485;28;20029;-72
2021/12/16 06:53:16;;;;;;;24.85;14.57;;;;;;;;;;5010991;28;20037;-71
2021/12/16 06:55:51;;;;;;;25.15;13.13;;;;;;;;;;5011384;28;20029;-72
2021/12/16 06:58:29;;;;;;;32.17;16.75;;;;;;;;;;5010885;28;20026;-72
2021/12/16 07:01:07;;;;;;;24.08;13.43;;;;;;;;;;5011194;28;20219;-72
2021/12/16 07:03:45;;;;;;;22.15;12.73;;;;;;;;;;5011340;28;20458;-72
2021/12/16 07:06:11;;;;;;;26.15;14.68;;;;;;;;;;5008265;28;20017;-71
2021/12/16 07:08:36;;;;;;;24.00;13.45;;;;;;;;;;5018119;28;20076;-71
2021/12/16 07:11:03;;;;;;;25.58;13.18;;;;;;;;;;5010112;28;20117;-71
2021/12/16 07:13:31;;;;;;;22.42;13.30;;;;;;;;;;5006277;28;20120;-71
2021/12/16 07:15:58;;;;;;;24.85;13.77;;;;;;;;;;4993340;28;20026;-71
2021/12/16 07:18:23;;;;;;;25.02;14.15;;;;;;;;;;5009991;28;20525;-72
2021/12/16 07:20:49;;;;;;;24.60;13.85;;;;;;;;;;5008162;28;20109;-71
2021/12/16 07:23:14;;;;;;;26.38;14.40;;;;;;;;;;5009847;28;20471;-72
2021/12/16 07:25:41;;;;;;;28.10;14.18;;;;;;;;;;5010625;28;20026;-73
2021/12/16 07:28:07;;;;;;;26.70;13.63;;;;;;;;;;5009954;28;20108;-72
2021/12/16 07:30:36;;;;;;;23.77;13.27;;;;;;;;;;5008413;28;20049;-72
2021/12/16 07:33:02;;;;;;;24.50;13.60;;;;;;;;;;5010314;28;20032;-72
2021/12/16 07:35:28;;;;;;;26.58;14.10;;;;;;;;;;5010164;28;20061;-70
2021/12/16 07:37:55;;;;;;;24.27;13.82;;;;;;;;;;5010790;28;20080;-73
2021/12/16 07:40:23;;;;;;;25.27;14.18;;;;;;;;;;5010064;28;20070;-74
2021/12/16 07:43:10;;;;;;;28.73;15.13;;;;;;;;;;5008175;28;20026;-73
2021/12/16 07:45:41;;;;;;;29.45;15.60;;;;;;;;;;5010578;28;20490;-73
2021/12/16 07:48:07;;;;;;;30.13;16.80;;;;;;;;;;5010556;28;20570;-76
2021/12/16 07:50:34;;;;;;;34.65;16.55;;;;;;;;;;5010403;28;20068;-75
2021/12/16 07:52:59;;;;;;;24.48;13.77;;;;;;;;;;5008938;28;20528;-72
2021/12/16 07:55:25;;;;;;;27.02;14.32;;;;;;;;;;5010425;28;20053;-74
2021/12/16 07:57:50;;;;;;;27.70;14.40;;;;;;;;;;5008650;28;20022;-72
2021/12/16 08:00:23;;;;;;;29.10;15.93;;;;;;;;;;5011425;28;20030;-73
2021/12/16 08:02:48;;;;;;;;;;;;;;;;;;5011820;28;20497;-73
2021/12/16 08:05:15;;;;;;;28.83;16.27;;;;;;;;;;5010853;28;19914;-72
2021/12/16 08:07:41;;;;;;;26.75;14.07;;;;;;;;;;5010457;28;20718;-73
2021/12/16 08:10:10;;;;;;;28.55;16.45;;;;;;;;;;5009806;28;20105;-74
2021/12/16 08:12:36;;;;;;;25.33;14.40;;;;;;;;;;5009850;28;20125;-73
2021/12/16 08:15:02;;;;;;;21.77;12.25;;;;;;;;;;5009635;28;20109;-74
2021/12/16 08:17:28;;;;;;;22.05;13.27;;;;;;;;;;5008717;28;20484;-73
2021/12/16 08:19:53;;;;;;;29.83;16.48;;;;;;;;;;5008999;28;20056;-74
2021/12/16 08:28:16;;;;;;;28.23;14.82;;;;;;;;;;5037015;28;20059;-73
2021/12/16 08:30:45;;;;;;;27.02;13.93;;;;;;;;;;5039002;28;20037;-73
2021/12/16 08:33:12;;;;;;;24.75;14.00;;;;;;;;;;5040260;28;20039;-72
2021/12/16 08:35:40;;;;;;;21.80;11.25;;;;;;;;;;5048175;28;20094;-72
2021/12/16 08:38:11;;;;;;;22.48;11.73;;;;;;;;;;5045793;28;20024;-72
2021/12/16 08:40:39;;;;;;;25.20;11.93;;;;;;;;;;5049172;28;20226;-72
2021/12/16 08:43:05;;;;;;;24.77;12.32;;;;;;;;;;5055171;23;20516;-74
2021/12/16 08:45:31;;;;;;;23.30;12.15;;;;;;;;;;5028287;28;20101;-76
2021/12/16 08:47:59;;;;;;;22.65;12.88;;;;;;;;;;5027890;28;20017;-74
2021/12/16 08:50:29;;;;;;;23.52;12.40;;;;;;;;;;5043623;28;20397;-74
2021/12/16 08:52:54;;;;;;;21.90;12.18;;;;;;;;;;5027325;28;20052;-75
2021/12/16 08:55:20;;;;;;;23.23;11.77;;;;;;;;;;5028723;28;20104;-75
2021/12/16 08:57:45;;;;;;;22.50;12.23;;;;;;;;;;5029142;28;20029;-76
2021/12/16 09:00:16;;;;;;;23.17;12.77;;;;;;;;;;5028642;28;20083;-76
2021/12/16 09:02:42;;;;;;;21.85;12.68;;;;;;;;;;5029980;28;20029;-76
2021/12/16 09:05:08;;;;;;;21.77;12.70;;;;;;;;;;5032628;28;20533;-75
2021/12/16 09:07:34;;;;;;;27.92;13.57;;;;;;;;;;5031457;28;20374;-76
2021/12/16 09:09:59;;;;;;;26.33;14.48;;;;;;;;;;5018964;28;20037;-75
2021/12/16 09:12:48;;;;;;;22.73;13.85;;;;;;;;;;5017018;28;20503;-74
2021/12/16 09:15:12;;;;;;;25.98;15.05;;;;;;;;;;5011853;28;20446;-75
2021/12/16 09:17:37;;;;;;;27.10;15.68;;;;;;;;;;5013096;28;20022;-76
2021/12/16 09:20:05;;;;;;;30.23;16.52;;;;;;;;;;5027855;28;20056;-75
2021/12/16 09:22:30;;;;;;;41.42;22.58;;;;;;;;;;5032356;28;20033;-75
2021/12/16 09:24:56;;;;;;;45.45;24.55;;;;;;;;;;5032507;28;20029;-74
2021/12/16 09:27:22;;;;;;;42.38;24.02;;;;;;;;;;5032691;28;20432;-75
2021/12/16 09:29:48;;;;;;;39.67;20.38;;;;;;;;;;5033199;28;20087;-76
2021/12/16 09:32:14;;;;;;;26.45;15.02;;;;;;;;;;5028899;28;20075;-75
2021/12/16 09:34:41;;;;;;;27.02;15.60;;;;;;;;;;5032387;28;20079;-75
2021/12/16 09:37:07;;;;;;;31.55;16.77;;;;;;;;;;5033152;28;20107;-75
2021/12/16 09:39:33;;;;;;;28.50;15.30;;;;;;;;;;5033273;28;20034;-75
2021/12/16 09:41:59;;;;;;;26.33;15.20;;;;;;;;;;5030802;28;20136;-75
2021/12/16 09:44:26;;;;;;;29.27;15.77;;;;;;;;;;5031213;28;20108;-75
2021/12/16 09:46:54;;;;;;;24.25;14.07;;;;;;;;;;5033028;28;20018;-75
2021/12/16 09:49:20;;;;;;;21.65;13.40;;;;;;;;;;5032653;28;20379;-76
2021/12/16 09:51:48;;;;;;;23.83;13.55;;;;;;;;;;5031075;28;20028;-75
2021/12/16 09:54:17;;;;;;;24.17;13.38;;;;;;;;;;5031137;28;20026;-75
2021/12/16 09:56:44;;;;;;;27.35;13.10;;;;;;;;;;5032636;28;20025;-75
2021/12/16 09:59:13;;;;;;;24.23;12.45;;;;;;;;;;5033083;28;20033;-75
2021/12/16 10:01:39;;;;;;;21.08;13.00;;;;;;;;;;5032805;28;20030;-75
2021/12/16 10:04:08;;;;;;;24.45;14.80;;;;;;;;;;5032284;28;20091;-75
2021/12/16 10:06:36;;;;;;;22.52;12.52;;;;;;;;;;5035369;28;20029;-75
2021/12/16 10:09:05;;;;;;;24.33;13.38;;;;;;;;;;5042423;28;20089;-75
2021/12/16 10:11:33;;;;;;;24.63;13.75;;;;;;;;;;5041773;28;20029;-75
2021/12/16 10:14:04;;;;;;;26.55;13.02;;;;;;;;;;5033588;28;20514;-75
2021/12/16 10:19:17;;;;;;;106.80;52.92;;;;;;;;;;5036617;28;20024;-76
2021/12/16 10:21:44;;;;;;;38.08;19.63;;;;;;;;;;5035725;28;20029;-76
2021/12/16 10:24:31;;;;;;;33.47;17.33;;;;;;;;;;5032099;28;20057;-76
2021/12/16 10:27:09;;;;;;;25.08;13.43;;;;;;;;;;5031864;28;20029;-75
2021/12/16 10:29:44;;;;;;;21.50;12.35;;;;;;;;;;5032029;28;20514;-75
2021/12/16 10:32:32;;;;;;;21.88;12.80;;;;;;;;;;5031671;28;20113;-75
2021/12/16 10:34:59;;;;;;;22.60;11.90;;;;;;;;;;5031130;28;20104;-75
2021/12/16 10:37:34;;;;;;;24.17;13.88;;;;;;;;;;5031739;28;20475;-75
2021/12/16 10:40:42;;;;;;;23.77;12.60;;;;;;;;;;5032026;28;20047;-75
2021/12/16 10:43:12;;;;;;;40.80;22.45;;;;;;;;;;5011685;28;20033;-75
2021/12/16 10:45:51;;;;;;;27.30;16.92;;;;;;;;;;5011763;28;20033;-75
2021/12/16 10:48:27;;;;;;;21.60;12.63;;;;;;;;;;5011710;28;20026;-75
2021/12/16 10:50:55;;;;;;;22.63;11.90;;;;;;;;;;5012903;28;20140;-75
2021/12/16 10:53:45;;;;;;;19.95;12.70;;;;;;;;;;5031143;28;20570;-75
2021/12/16 10:56:11;;;;;;;25.90;13.30;;;;;;;;;;5029955;28;20044;-76
2021/12/16 10:59:00;;;;;;;24.48;13.18;;;;;;;;;;5023586;28;20037;-76
2021/12/16 11:01:38;;;;;;;26.20;14.98;;;;;;;;;;5030184;28;20033;-76
2021/12/16 11:04:11;;;;;;;27.27;16.75;;;;;;;;;;5030671;28;20057;-76
2021/12/16 11:06:41;;;;;;;24.98;16.45;;;;;;;;;;5030453;28;20057;-76
2021/12/16 11:09:40;;;;;;;25.58;15.13;;;;;;;;;;5030193;28;20075;-76
2021/12/16 11:12:20;;;;;;;22.67;13.73;;;;;;;;;;5029093;28;20021;-78
2021/12/16 11:14:59;;;;;;;23.40;13.35;;;;;;;;;;5029589;28;20036;-75
2021/12/16 11:17:31;;;;;;;20.85;12.18;;;;;;;;;;5030490;28;20021;-75
2021/12/16 11:20:03;;;;;;;20.38;13.27;;;;;;;;;;5030728;28;20029;-76
2021/12/16 11:22:34;;;;;;;23.08;12.63;;;;;;;;;;5030718;28;20044;-73
2021/12/16 11:25:36;;;;;;;20.73;11.98;;;;;;;;;;5030545;28;20499;-74
2021/12/16 11:28:16;;;;;;;24.02;13.38;;;;;;;;;;5019743;28;20041;-74
2021/12/16 11:30:44;;;;;;;25.05;13.88;;;;;;;;;;5030159;28;20029;-74
2021/12/16 11:33:21;;;;;;;21.08;12.88;;;;;;;;;;5030244;28;20033;-74
2021/12/16 11:35:53;;;;;;;23.27;13.38;;;;;;;;;;5029755;28;20104;-73
2021/12/16 11:38:36;;;;;;;23.52;13.80;;;;;;;;;;5030002;28;20025;-72
2021/12/16 11:41:10;;;;;;;19.50;12.90;;;;;;;;;;5030363;28;20055;-73
2021/12/16 11:43:38;;;;;;;23.33;13.27;;;;;;;;;;5030443;28;20442;-73
2021/12/16 11:46:10;;;;;;;25.52;13.27;;;;;;;;;;5029616;28;20038;-74
2021/12/16 11:48:38;;;;;;;23.85;12.70;;;;;;;;;;5030361;28;20510;-73
2021/12/16 11:51:10;;;;;;;20.52;11.82;;;;;;;;;;5029824;28;20566;-73
2021/12/16 11:53:44;;;;;;;22.03;12.80;;;;;;;;;;5029685;28;20026;-73
2021/12/16 11:56:11;;;;;;;21.50;11.68;;;;;;;;;;5029369;28;20033;-73
2021/12/16 11:58:40;;;;;;;19.00;11.38;;;;;;;;;;5029468;28;20032;-73
2021/12/16 12:01:22;;;;;;;18.65;11.38;;;;;;;;;;5028911;28;20037;-73
2021/12/16 12:03:48;;;;;;;17.25;10.95;;;;;;;;;;5028974;28;20552;-73
2021/12/16 12:06:20;;;;;;;17.00;10.95;;;;;;;;;;5029864;28;20037;-74
2021/12/16 12:08:48;;;;;;;19.92;12.45;;;;;;;;;;5029126;28;20487;-74
2021/12/16 12:11:21;;;;;;;19.15;10.63;;;;;;;;;;5027421;28;20090;-73
2021/12/16 12:13:59;;;;;;;18.50;11.40;;;;;;;;;;5028261;28;20083;-73
2021/12/16 12:16:33;;;;;;;19.95;10.77;;;;;;;;;;5028904;28;20083;-73
2021/12/16 12:19:22;;;;;;;19.77;11.20;;;;;;;;;;5028999;28;20035;-73
2021/12/16 12:22:00;;;;;;;21.25;10.95;;;;;;;;;;5028349;28;20075;-73
2021/12/16 12:24:25;;;;;;;17.73;10.68;;;;;;;;;;5029177;28;20383;-72
2021/12/16 12:26:55;;;;;;;16.17;10.18;;;;;;;;;;5029468;28;20447;-73
2021/12/16 12:29:27;;;;;;;20.45;10.40;;;;;;;;;;5027896;28;20034;-73
2021/12/16 12:31:56;;;;;;;17.92;9.40;;;;;;;;;;5029054;28;20052;-73
2021/12/16 12:34:22;;;;;;;17.02;9.45;;;;;;;;;;5027376;28;20287;-73
2021/12/16 12:36:50;;;;;;;19.20;10.68;;;;;;;;;;5029042;28;20467;-72
2021/12/16 12:39:19;;;;;;;14.73;9.70;;;;;;;;;;5029031;28;20053;-72
2021/12/16 12:41:46;;;;;;;18.13;10.38;;;;;;;;;;5028078;28;20025;-74
2021/12/16 12:44:12;;;;;;;17.80;10.82;;;;;;;;;;5027362;28;20200;-73
2021/12/16 12:46:39;;;;;;;16.83;10.23;;;;;;;;;;5029178;28;20356;-74
2021/12/16 12:49:08;;;;;;;15.55;9.98;;;;;;;;;;5011957;28;20055;-74
2021/12/16 12:51:40;;;;;;;17.17;9.93;;;;;;;;;;5017918;28;20029;-74
2021/12/16 12:54:16;;;;;;;19.58;10.60;;;;;;;;;;5036247;28;20025;-74
2021/12/16 12:56:41;;;;;;;16.67;10.50;;;;;;;;;;5028338;28;20030;-74
2021/12/16 12:59:11;;;;;;;20.23;10.75;;;;;;;;;;5028906;28;20029;-73
2021/12/16 13:01:45;;;;;;;22.27;11.27;;;;;;;;;;5027854;28;20022;-73
2021/12/16 13:04:33;;;;;;;18.88;11.30;;;;;;;;;;5009300;28;20025;-75
2021/12/16 13:07:00;;;;;;;15.38;10.23;;;;;;;;;;5025757;28;20029;-74
2021/12/16 13:09:41;;;;;;;20.35;14.00;;;;;;;;;;5028517;28;20026;-74
2021/12/16 13:12:32;;;;;;;14.48;9.38;;;;;;;;;;5028057;28;20435;-74
2021/12/16 13:15:11;;;;;;;15.88;9.63;;;;;;;;;;5011243;28;20052;-74
2021/12/16 13:26:08;;;;;;;17.27;10.38;;;;;;;;;;5025189;28;20032;-72
2021/12/16 13:34:54;;;;;;;15.77;9.48;;;;;;;;;;5018459;28;20036;-74
2021/12/16 13:37:34;;;;;;;17.58;9.75;;;;;;;;;;5025018;28;20451;-72
2021/12/16 13:40:22;;;;;;;15.85;10.35;;;;;;;;;;5031689;28;20330;-73
2021/12/16 13:42:53;;;;;;;17.10;9.80;;;;;;;;;;5020982;28;20127;-73
2021/12/16 13:45:28;;;;;;;18.88;10.38;;;;;;;;;;5024449;28;20606;-73
2021/12/16 14:02:02;;;;;;;16.00;9.85;;;;;;;;;;5010746;28;20108;-73
2021/12/16 14:04:52;;;;;;;16.52;9.73;;;;;;;;;;5025795;28;20021;-73
2021/12/16 14:07:51;;;;;;;16.40;9.95;;;;;;;;;;5024731;28;20068;-73
2021/12/16 14:10:21;;;;;;;17.90;10.43;;;;;;;;;;5026683;28;20037;-74
2021/12/16 14:16:53;;;;;;;15.45;9.50;;;;;;;;;;5027689;28;20055;-73
2021/12/16 14:42:13;;;;;;;28.58;16.48;;;;;;;;;;5019223;22;20073;-76
2021/12/16 14:47:27;;;;;;;26.85;14.80;;;;;;;;;;5027006;28;20044;-76
2021/12/16 14:49:53;;;;;;;17.33;10.70;;;;;;;;;;5020802;28;20492;-76
2021/12/16 14:52:27;;;;;;;15.10;9.85;;;;;;;;;;5017722;28;20041;-76
2021/12/16 14:54:54;;;;;;;14.95;9.25;;;;;;;;;;5007244;28;20418;-75
2021/12/16 14:57:25;;;;;;;19.65;9.05;;;;;;;;;;5023289;28;20100;-76
2021/12/16 14:59:52;;;;;;;15.80;9.02;;;;;;;;;;5026316;28;20510;-76
2021/12/16 15:02:19;;;;;;;14.70;9.80;;;;;;;;;;5027136;28;20569;-76
2021/12/16 15:04:45;;;;;;;15.40;9.00;;;;;;;;;;5026927;28;20037;-76
2021/12/16 15:07:12;;;;;;;15.02;9.13;;;;;;;;;;5026064;28;20024;-76
2021/12/16 15:09:40;;;;;;;15.98;10.00;;;;;;;;;;5028197;28;20049;-76
2021/12/16 15:12:32;;;;;;;15.88;9.18;;;;;;;;;;5038049;28;20029;-76
2021/12/16 15:15:05;;;;;;;15.65;10.75;;;;;;;;;;5047611;28;20032;-75
2021/12/16 15:45:15;;;;;;;26.20;14.43;;;;;;;;;;5027109;28;20334;-75
2021/12/16 15:47:49;;;;;;;26.15;13.60;;;;;;;;;;5026469;28;20467;-76
2021/12/16 15:50:21;;;;;;;21.65;12.65;;;;;;;;;;5026975;28;20423;-76
2021/12/16 15:52:50;;;;;;;22.40;14.90;;;;;;;;;;5026785;28;20108;-76
2021/12/16 15:55:29;;;;;;;25.17;14.10;;;;;;;;;;5026873;28;20040;-76
2021/12/16 15:58:31;;;;;;;23.65;13.95;;;;;;;;;;5027088;28;20052;-76
2021/12/16 16:01:19;;;;;;;30.90;15.63;;;;;;;;;;4996659;28;20034;-77
2021/12/16 16:03:46;;;;;;;27.17;15.77;;;;;;;;;;5044936;28;20083;-77
2021/12/16 16:06:14;;;;;;;19.30;12.27;;;;;;;;;;5048662;28;20021;-77
2021/12/16 16:08:46;;;;;;;18.40;10.45;;;;;;;;;;5042969;28;20028;-77
2021/12/16 16:11:15;;;;;;;22.27;12.27;;;;;;;;;;5030312;28;20036;-77
2021/12/16 16:13:49;;;;;;;26.52;13.43;;;;;;;;;;5029448;28;20479;-76
2021/12/16 16:16:18;;;;;;;23.73;12.40;;;;;;;;;;5030676;28;20438;-77
2021/12/16 16:18:55;;;;;;;24.73;12.57;;;;;;;;;;5030881;28;20042;-77
2021/12/16 16:21:26;;;;;;;19.73;11.02;;;;;;;;;;5045211;28;20047;-76
2021/12/16 16:23:56;;;;;;;19.00;10.65;;;;;;;;;;5050020;28;20027;-76
2021/12/16 16:26:22;;;;;;;19.65;10.90;;;;;;;;;;5048124;28;20013;-77
2021/12/16 16:28:51;;;;;;;19.60;12.13;;;;;;;;;;5029651;28;20017;-77
2021/12/16 16:31:20;;;;;;;14.75;9.73;;;;;;;;;;5028923;28;20493;-76
2021/12/16 16:33:47;;;;;;;16.48;9.55;;;;;;;;;;5029600;28;20021;-76
2021/12/16 16:36:15;;;;;;;15.82;10.52;;;;;;;;;;5029197;28;20021;-76
2021/12/16 16:38:56;;;;;;;17.45;12.93;;;;;;;;;;5030280;28;20034;-76
2021/12/16 16:41:26;;;;;;;20.10;12.30;;;;;;;;;;5030162;28;20525;-76
2021/12/16 16:44:03;;;;;;;20.02;13.63;;;;;;;;;;5029986;28;20022;-76
2021/12/16 16:46:40;;;;;;;17.40;12.85;;;;;;;;;;5030232;28;20049;-76
2021/12/16 16:49:09;;;;;;;21.30;11.15;;;;;;;;;;5030272;28;20048;-76
2021/12/16 16:51:57;;;;;;;18.85;10.60;;;;;;;;;;5029977;28;20033;-76
2021/12/16 16:54:28;;;;;;;16.10;9.80;;;;;;;;;;5029143;28;20113;-76
2021/12/16 16:57:01;;;;;;;15.07;8.90;;;;;;;;;;5030091;28;20025;-76
2021/12/16 16:59:30;;;;;;;15.02;8.85;;;;;;;;;;5030311;28;20029;-76
2021/12/16 17:01:57;;;;;;;15.18;8.52;;;;;;;;;;5017805;28;20084;-76
2021/12/16 17:04:23;;;;;;;12.55;8.25;;;;;;;;;;5010426;28;20017;-76
2021/12/16 17:06:56;;;;;;;17.33;8.82;;;;;;;;;;5010241;28;20017;-76
2021/12/16 17:09:23;;;;;;;15.15;9.15;;;;;;;;;;5010597;28;20028;-76
2021/12/16 17:11:51;;;;;;;16.30;9.75;;;;;;;;;;5010355;28;20022;-76
2021/12/16 17:14:22;;;;;;;15.35;10.13;;;;;;;;;;5010440;28;20088;-76
2021/12/16 17:17:12;;;;;;;17.05;10.10;;;;;;;;;;5010106;28;20018;-76
2021/12/16 17:19:46;;;;;;;18.83;10.55;;;;;;;;;;5010287;28;20038;-76
2021/12/16 17:22:18;;;;;;;18.15;11.07;;;;;;;;;;5013340;28;20034;-76
2021/12/16 17:24:47;;;;;;;21.48;12.82;;;;;;;;;;5052477;28;20028;-76
2021/12/16 17:27:16;;;;;;;22.05;13.02;;;;;;;;;;5053531;28;20553;-76
2021/12/16 17:29:55;;;;;;;24.23;14.27;;;;;;;;;;5053761;28;20115;-76
2021/12/16 17:32:25;;;;;;;27.10;14.57;;;;;;;;;;5053644;28;20036;-76
2021/12/16 17:34:59;;;;;;;22.38;12.65;;;;;;;;;;5053472;28;20075;-76
2021/12/16 17:37:31;;;;;;;27.70;14.82;;;;;;;;;;5053268;28;20017;-76
2021/12/16 17:40:07;;;;;;;24.25;13.30;;;;;;;;;;5053579;28;20363;-76
2021/12/16 17:42:41;;;;;;;21.48;12.40;;;;;;;;;;5053341;28;20037;-76
2021/12/16 17:45:11;;;;;;;22.85;12.52;;;;;;;;;;5053710;28;20035;-76
2021/12/16 17:47:37;;;;;;;25.35;11.88;;;;;;;;;;5052289;28;20531;-76
2021/12/16 17:50:11;;;;;;;24.67;13.73;;;;;;;;;;5053680;28;20029;-76
2021/12/16 17:52:37;;;;;;;23.60;13.30;;;;;;;;;;5053159;28;20024;-77
2021/12/16 17:55:10;;;;;;;27.98;14.07;;;;;;;;;;5053524;28;20036;-76
2021/12/16 17:57:40;;;;;;;29.45;13.48;;;;;;;;;;5051760;28;20051;-76
2021/12/16 18:00:24;;;;;;;38.75;17.10;;;;;;;;;;5053120;28;20505;-76
2021/12/16 18:02:50;;;;;;;30.67;14.10;;;;;;;;;;5038131;28;20083;-76
2021/12/16 18:05:16;;;;;;;22.90;12.45;;;;;;;;;;5033098;28;20116;-76
2021/12/16 18:07:42;;;;;;;17.42;11.27;;;;;;;;;;5032730;28;20041;-76
2021/12/16 18:10:10;;;;;;;16.23;10.80;;;;;;;;;;5032849;28;20485;-76
2021/12/16 18:12:36;;;;;;;22.48;12.73;;;;;;;;;;5033505;28;20040;-76
2021/12/16 18:15:07;;;;;;;19.95;13.10;;;;;;;;;;5052984;28;20378;-76
2021/12/16 18:17:58;;;;;;;23.40;14.95;;;;;;;;;;5052541;28;20020;-76
2021/12/16 18:20:33;;;;;;;25.08;15.80;;;;;;;;;;5047083;28;20037;-76
2021/12/16 18:23:01;;;;;;;20.77;14.98;;;;;;;;;;5051346;28;20479;-76
2021/12/16 18:25:30;;;;;;;17.50;12.20;;;;;;;;;;5052463;28;20032;-76
2021/12/16 18:28:02;;;;;;;19.08;11.65;;;;;;;;;;5052569;28;20021;-76
2021/12/16 18:30:38;;;;;;;18.35;11.93;;;;;;;;;;5052585;28;20452;-76